Puerto Banus, Marbella

>

This is an optional block (switch it off / on) in the settings - file ($SITE['banners'] = false;)

You can display ads, any other important text or photo’s using text / html or PHP code.

You can place one or more at the top and or bottom and it can all be different for content / size .



Meteosat more information blitzortung!


Radar lluvias  rain snow radar


Visita nuestra red de sitios de meteo:

Documentation for the template used

MeteoibericaRed estaciones Meteorologicas

MeteoclimaticRed estaciones Meteorologicas



Sin Advertencias climatologicas .En este momento tenemos Nivel Verde.    No hay Alarmas

Pagina Historial Weather Underground texto

Diario Resumen January 3, 2017 Unidades:  impérial    Métrico   Tanto
« Anterior Dia
Siguiente Dia »
Diario Semana Mensual Anual Personalizada
  Maxima: Minima: Media:
Temperatura: TemperatureC °F 9.9 °F 12.6 °F
Punto de rocío: DewpointC °F 7.1 °F 9.3 °F
Humedad: Humidity % 71 % 80 %
Velocidad del Viento: WindSpeedKMH mph 0.0 mph 11.4 mph
Ráfagas de viento: WindSpeedGustKMH mph - -
Viento:- - West
Pression baro: PressurehPa in 1023.2 in -
Précipitaciones: 0.0 in    
Historical Graphs
 
 
Datos de tabla para January 3, 2017
Tiempo Temperatura Punto de rocío Pression baro Viento Velocidad del Viento Ráfagas de viento Humedad Las precipitaciones Rate ( Hora )
TemperatureC °F DewpointC °F PressurehPa in Calm     Humidity % HourlyPrecipMM in
00:01 11.2 °F 8.0 °F 1023.6 in North 16.7 mph 16.7 mph 81 % 0.0 in
00:06 11.1 °F 7.9 °F 1023.6 in NNE 20.4 mph 20.4 mph 81 % 0.0 in
00:11 11.1 °F 7.9 °F 1023.6 in North 18.5 mph 18.5 mph 81 % 0.0 in
00:16 11.1 °F 7.9 °F 1023.6 in North 20.4 mph 20.4 mph 81 % 0.0 in
00:21 11.1 °F 7.7 °F 1023.6 in North 18.5 mph 18.5 mph 80 % 0.0 in
00:26 11.0 °F 7.9 °F 1023.6 in North 18.5 mph 18.5 mph 81 % 0.0 in
00:31 10.9 °F 7.6 °F 1023.6 in North 18.5 mph 18.5 mph 80 % 0.0 in
00:36 10.9 °F 7.6 °F 1023.6 in North 18.5 mph 18.5 mph 80 % 0.0 in
00:41 10.9 °F 7.8 °F 1023.6 in North 14.8 mph 14.8 mph 81 % 0.0 in
00:46 10.8 °F 7.7 °F 1023.6 in NNE 13.0 mph 13.0 mph 81 % 0.0 in
00:51 10.8 °F 7.7 °F 1023.6 in North 18.5 mph 18.5 mph 81 % 0.0 in
00:56 10.8 °F 7.7 °F 1023.6 in North 18.5 mph 18.5 mph 81 % 0.0 in
01:01 10.8 °F 7.7 °F 1023.6 in North 16.7 mph 16.7 mph 81 % 0.0 in
01:06 10.8 °F 7.7 °F 1023.6 in North 14.8 mph 14.8 mph 81 % 0.0 in
01:11 10.8 °F 7.7 °F 1023.2 in North 18.5 mph 18.5 mph 81 % 0.0 in
01:17 10.8 °F 7.7 °F 1023.2 in North 18.5 mph 18.5 mph 81 % 0.0 in
01:22 10.8 °F 7.7 °F 1023.2 in North 18.5 mph 18.5 mph 81 % 0.0 in
01:27 10.8 °F 7.7 °F 1023.2 in North 18.5 mph 18.5 mph 81 % 0.0 in
01:32 10.8 °F 7.7 °F 1023.2 in NNE 16.7 mph 16.7 mph 81 % 0.0 in
01:37 10.7 °F 7.6 °F 1023.2 in NNW 18.5 mph 18.5 mph 81 % 0.0 in
01:42 10.7 °F 7.6 °F 1023.2 in NNW 18.5 mph 18.5 mph 81 % 0.0 in
01:47 10.7 °F 7.6 °F 1023.2 in North 18.5 mph 18.5 mph 81 % 0.0 in
01:52 10.7 °F 7.6 °F 1023.2 in North 18.5 mph 18.5 mph 81 % 0.0 in
01:57 10.7 °F 7.6 °F 1023.2 in NNE 16.7 mph 16.7 mph 81 % 0.0 in
02:02 10.7 °F 7.6 °F 1023.2 in North 14.8 mph 14.8 mph 81 % 0.0 in
02:07 10.8 °F 7.7 °F 1023.2 in NNE 11.1 mph 11.1 mph 81 % 0.0 in
02:12 10.8 °F 7.7 °F 1023.2 in NNW 16.7 mph 16.7 mph 81 % 0.0 in
02:17 10.9 °F 7.6 °F 1023.2 in NNW 14.8 mph 14.8 mph 80 % 0.0 in
02:27 10.8 °F 7.5 °F 1023.2 in North 16.7 mph 16.7 mph 80 % 0.0 in
02:32 10.8 °F 7.5 °F 1023.2 in NNW 13.0 mph 13.0 mph 80 % 0.0 in
02:37 10.8 °F 7.4 °F 1023.2 in NNW 16.7 mph 16.7 mph 80 % 0.0 in
02:42 10.7 °F 7.3 °F 1023.2 in NNE 19.3 mph 19.3 mph 80 % 0.0 in
02:47 10.6 °F 7.2 °F 1023.2 in North 14.8 mph 14.8 mph 80 % 0.0 in
02:52 10.4 °F 7.3 °F 1023.2 in North 14.8 mph 14.8 mph 81 % 0.0 in
02:57 10.4 °F 7.3 °F 1023.2 in NNW 14.8 mph 14.8 mph 81 % 0.0 in
03:02 10.4 °F 7.3 °F 1023.2 in North 18.5 mph 18.5 mph 81 % 0.0 in
03:07 10.3 °F 7.2 °F 1023.2 in North 18.5 mph 18.5 mph 81 % 0.0 in
03:12 10.3 °F 7.2 °F 1023.2 in NNW 18.5 mph 18.5 mph 81 % 0.0 in
03:17 10.3 °F 7.2 °F 1023.2 in North 16.7 mph 16.7 mph 81 % 0.0 in
03:22 10.2 °F 7.3 °F 1023.2 in North 14.8 mph 14.8 mph 82 % 0.0 in
03:27 10.2 °F 7.3 °F 1023.2 in North 16.7 mph 16.7 mph 82 % 0.0 in
03:32 10.2 °F 7.3 °F 1023.2 in NNW 16.1 mph 16.1 mph 82 % 0.0 in
03:37 10.2 °F 7.3 °F 1023.2 in North 14.8 mph 14.8 mph 82 % 0.0 in
03:42 10.2 °F 7.2 °F 1023.2 in North 14.8 mph 14.8 mph 82 % 0.0 in
03:47 10.2 °F 7.2 °F 1023.2 in North 16.7 mph 16.7 mph 82 % 0.0 in
03:52 10.1 °F 7.2 °F 1023.2 in North 14.8 mph 14.8 mph 82 % 0.0 in
03:57 10.1 °F 7.1 °F 1023.2 in North 16.7 mph 16.7 mph 82 % 0.0 in
04:02 10.1 °F 7.1 °F 1023.6 in North 13.0 mph 13.0 mph 82 % 0.0 in
04:07 10.1 °F 7.1 °F 1023.6 in NNW 13.0 mph 13.0 mph 82 % 0.0 in
04:12 10.1 °F 7.1 °F 1023.6 in NNW 13.0 mph 13.0 mph 82 % 0.0 in
04:17 10.1 °F 7.1 °F 1023.2 in NNW 16.7 mph 16.7 mph 82 % 0.0 in
04:22 10.0 °F 7.1 °F 1023.2 in North 13.0 mph 13.0 mph 82 % 0.0 in
04:27 10.0 °F 7.2 °F 1023.2 in North 18.5 mph 18.5 mph 83 % 0.0 in
04:32 10.0 °F 7.2 °F 1023.2 in North 16.7 mph 16.7 mph 83 % 0.0 in
04:37 9.9 °F 7.2 °F 1023.2 in North 16.7 mph 16.7 mph 83 % 0.0 in
04:42 9.9 °F 7.2 °F 1023.2 in North 13.0 mph 13.0 mph 83 % 0.0 in
04:47 9.9 °F 7.1 °F 1023.2 in North 14.8 mph 14.8 mph 83 % 0.0 in
04:52 9.9 °F 7.2 °F 1023.2 in NNW 16.7 mph 16.7 mph 83 % 0.0 in
04:57 9.9 °F 7.2 °F 1023.2 in NNW 14.8 mph 14.8 mph 83 % 0.0 in
05:02 9.9 °F 7.2 °F 1023.2 in North 18.5 mph 18.5 mph 83 % 0.0 in
05:07 9.9 °F 7.2 °F 1023.2 in North 14.8 mph 14.8 mph 83 % 0.0 in
05:12 9.9 °F 7.2 °F 1023.2 in North 14.8 mph 14.8 mph 83 % 0.0 in
05:17 9.9 °F 7.2 °F 1023.2 in NNW 16.7 mph 16.7 mph 83 % 0.0 in
05:22 9.9 °F 7.2 °F 1023.2 in NNW 11.1 mph 11.1 mph 83 % 0.0 in
05:27 10.0 °F 7.2 °F 1023.2 in NNW 14.8 mph 14.8 mph 83 % 0.0 in
05:32 10.0 °F 7.2 °F 1023.2 in North 13.0 mph 13.0 mph 83 % 0.0 in
05:37 10.0 °F 7.2 °F 1023.2 in North 13.0 mph 13.0 mph 83 % 0.0 in
05:42 10.0 °F 7.2 °F 1023.6 in North 14.8 mph 14.8 mph 83 % 0.0 in
05:47 9.9 °F 7.2 °F 1023.6 in North 14.8 mph 14.8 mph 83 % 0.0 in
05:52 9.9 °F 7.2 °F 1023.6 in North 14.8 mph 14.8 mph 83 % 0.0 in
05:57 9.9 °F 7.2 °F 1023.6 in NNW 14.8 mph 14.8 mph 83 % 0.0 in
06:02 9.9 °F 7.2 °F 1023.6 in North 16.7 mph 16.7 mph 83 % 0.0 in
06:07 9.9 °F 7.2 °F 1023.2 in North 13.0 mph 13.0 mph 83 % 0.0 in
06:13 10.0 °F 7.2 °F 1023.2 in North 14.8 mph 14.8 mph 83 % 0.0 in
06:17 10.0 °F 7.2 °F 1023.2 in North 16.7 mph 16.7 mph 83 % 0.0 in
06:22 10.0 °F 7.2 °F 1023.2 in North 14.8 mph 14.8 mph 83 % 0.0 in
06:27 9.9 °F 7.2 °F 1023.6 in North 13.0 mph 13.0 mph 83 % 0.0 in
06:32 10.0 °F 7.2 °F 1023.6 in North 13.0 mph 13.0 mph 83 % 0.0 in
06:38 10.0 °F 7.2 °F 1023.6 in North 14.5 mph 14.5 mph 83 % 0.0 in
06:43 10.0 °F 7.2 °F 1023.6 in NNW 13.0 mph 13.0 mph 83 % 0.0 in
06:48 10.0 °F 7.2 °F 1023.6 in North 14.8 mph 14.8 mph 83 % 0.0 in
06:53 10.0 °F 7.2 °F 1023.6 in NNW 14.8 mph 14.8 mph 83 % 0.0 in
06:58 10.0 °F 7.2 °F 1023.6 in North 11.1 mph 11.1 mph 83 % 0.0 in
07:03 10.0 °F 7.2 °F 1023.6 in NNW 16.7 mph 16.7 mph 83 % 0.0 in
07:08 9.9 °F 7.2 °F 1023.6 in North 13.0 mph 13.0 mph 83 % 0.0 in
07:13 9.9 °F 7.2 °F 1023.6 in North 14.8 mph 14.8 mph 83 % 0.0 in
07:18 9.9 °F 7.2 °F 1023.6 in North 16.7 mph 16.7 mph 83 % 0.0 in
07:23 10.0 °F 7.2 °F 1023.6 in North 13.0 mph 13.0 mph 83 % 0.0 in
07:28 10.0 °F 7.2 °F 1023.9 in NNW 13.0 mph 13.0 mph 83 % 0.0 in
07:33 10.0 °F 7.2 °F 1023.9 in North 18.5 mph 18.5 mph 83 % 0.0 in
07:38 10.0 °F 7.4 °F 1023.9 in North 14.8 mph 14.8 mph 84 % 0.0 in
07:43 10.0 °F 7.4 °F 1023.9 in North 16.1 mph 16.1 mph 84 % 0.0 in
07:48 9.9 °F 7.4 °F 1023.9 in North 13.0 mph 13.0 mph 84 % 0.0 in
07:53 9.9 °F 7.4 °F 1023.9 in North 13.0 mph 13.0 mph 84 % 0.0 in
07:58 10.0 °F 7.4 °F 1023.9 in North 16.1 mph 16.1 mph 84 % 0.0 in
08:03 10.0 °F 7.4 °F 1024.3 in NNW 16.7 mph 16.7 mph 84 % 0.0 in
08:08 10.0 °F 7.4 °F 1024.3 in North 13.0 mph 13.0 mph 84 % 0.0 in
08:13 10.0 °F 7.4 °F 1024.3 in North 14.8 mph 14.8 mph 84 % 0.0 in
08:18 9.9 °F 7.4 °F 1024.3 in NNW 14.8 mph 14.8 mph 84 % 0.0 in
08:23 9.9 °F 7.4 °F 1024.3 in NNW 16.7 mph 16.7 mph 84 % 0.0 in
08:28 9.9 °F 7.4 °F 1024.3 in North 16.7 mph 16.7 mph 84 % 0.0 in
08:33 9.9 °F 7.4 °F 1024.3 in NNW 16.7 mph 16.7 mph 84 % 0.0 in
08:38 9.9 °F 7.4 °F 1024.3 in North 16.7 mph 16.7 mph 84 % 0.0 in
08:43 10.0 °F 7.4 °F 1024.3 in NNW 14.8 mph 14.8 mph 84 % 0.0 in
08:48 10.1 °F 7.5 °F 1024.3 in NNW 14.8 mph 14.8 mph 84 % 0.0 in
08:53 10.1 °F 7.5 °F 1024.3 in North 16.7 mph 16.7 mph 84 % 0.0 in
08:58 10.1 °F 7.6 °F 1024.3 in North 14.8 mph 14.8 mph 84 % 0.0 in
09:03 10.1 °F 7.6 °F 1024.6 in North 16.7 mph 16.7 mph 84 % 0.0 in
09:08 10.2 °F 7.6 °F 1024.6 in North 16.7 mph 16.7 mph 84 % 0.0 in
09:13 10.2 °F 7.6 °F 1024.6 in NNW 16.7 mph 16.7 mph 84 % 0.0 in
09:18 10.3 °F 7.7 °F 1024.6 in North 13.0 mph 13.0 mph 84 % 0.0 in
09:23 10.3 °F 7.7 °F 1024.6 in NNW 12.9 mph 12.9 mph 84 % 0.0 in
09:28 10.4 °F 7.8 °F 1024.6 in North 14.8 mph 14.8 mph 84 % 0.0 in
09:33 10.6 °F 7.8 °F 1024.6 in NNW 13.0 mph 13.0 mph 83 % 0.0 in
09:38 10.6 °F 7.8 °F 1024.9 in North 11.3 mph 11.3 mph 83 % 0.0 in
09:43 10.7 °F 7.9 °F 1024.9 in NNW 13.0 mph 13.0 mph 83 % 0.0 in
09:48 10.8 °F 8.0 °F 1024.9 in North 13.0 mph 13.0 mph 83 % 0.0 in
09:53 10.8 °F 8.1 °F 1024.9 in North 13.0 mph 13.0 mph 83 % 0.0 in
09:58 11.0 °F 8.2 °F 1025.3 in North 13.0 mph 13.0 mph 83 % 0.0 in
10:03 11.1 °F 8.3 °F 1025.3 in North 9.3 mph 9.3 mph 83 % 0.0 in
10:08 11.2 °F 8.4 °F 1025.3 in North 14.8 mph 14.8 mph 83 % 0.0 in
10:13 11.3 °F 8.4 °F 1025.3 in North 9.7 mph 9.7 mph 82 % 0.0 in
10:18 11.4 °F 8.4 °F 1025.3 in NNW 11.3 mph 11.3 mph 82 % 0.0 in
10:23 11.5 °F 8.6 °F 1025.3 in North 13.0 mph 13.0 mph 82 % 0.0 in
10:28 11.7 °F 8.7 °F 1025.6 in NNW 9.3 mph 9.3 mph 82 % 0.0 in
10:33 11.8 °F 8.8 °F 1025.6 in North 13.0 mph 13.0 mph 82 % 0.0 in
10:38 11.9 °F 8.8 °F 1025.6 in North 9.3 mph 9.3 mph 81 % 0.0 in
10:43 12.2 °F 9.0 °F 1025.6 in North 8.0 mph 8.0 mph 81 % 0.0 in
10:48 12.3 °F 9.2 °F 1026.0 in NNW 7.4 mph 7.4 mph 81 % 0.0 in
10:53 12.6 °F 9.4 °F 1026.0 in North 7.4 mph 7.4 mph 81 % 0.0 in
10:58 12.8 °F 9.7 °F 1026.0 in North 7.4 mph 7.4 mph 81 % 0.0 in
11:03 13.1 °F 9.7 °F 1026.0 in North 5.6 mph 5.6 mph 80 % 0.0 in
11:08 13.3 °F 9.9 °F 1026.0 in North 5.6 mph 5.6 mph 80 % 0.0 in
11:13 13.7 °F 10.1 °F 1026.0 in North 3.7 mph 3.7 mph 79 % 0.0 in
11:18 13.9 °F 10.3 °F 1026.0 in North 1.9 mph   79 % 0.0 in
11:23 14.3 °F 10.7 °F 1026.0 in Calm     79 % 0.0 in
11:28 14.7 °F 10.9 °F 1026.0 in Calm     78 % 0.0 in
11:33 14.9 °F 10.9 °F 1026.0 in Calm     77 % 0.0 in
11:38 15.1 °F 10.9 °F 1026.0 in WSW 5.6 mph 5.6 mph 76 % 0.0 in
11:43 15.2 °F 11.0 °F 1026.0 in WSW 5.6 mph 5.6 mph 76 % 0.0 in
11:48 15.3 °F 11.1 °F 1026.0 in WSW 5.6 mph 5.6 mph 76 % 0.0 in
11:53 15.2 °F 10.8 °F 1026.0 in SW 7.4 mph 7.4 mph 75 % 0.0 in
11:59 15.2 °F 10.8 °F 1026.0 in WSW 7.4 mph 7.4 mph 75 % 0.0 in
12:04 15.1 °F 10.7 °F 1026.0 in WSW 7.4 mph 7.4 mph 75 % 0.0 in
12:09 15.1 °F 10.8 °F 1026.0 in WSW 9.3 mph 9.3 mph 76 % 0.0 in
12:14 15.1 °F 10.8 °F 1026.0 in WSW 8.0 mph 8.0 mph 76 % 0.0 in
12:19 15.1 °F 11.1 °F 1026.0 in WSW 8.0 mph 8.0 mph 77 % 0.0 in
12:24 15.0 °F 11.0 °F 1026.0 in SW 11.3 mph 11.3 mph 77 % 0.0 in
12:29 14.9 °F 10.9 °F 1025.6 in WSW 9.3 mph 9.3 mph 77 % 0.0 in
12:34 15.0 °F 11.2 °F 1025.6 in WSW 8.0 mph 8.0 mph 78 % 0.0 in
12:39 14.9 °F 10.9 °F 1025.6 in WSW 9.3 mph 9.3 mph 77 % 0.0 in
12:44 14.9 °F 10.9 °F 1025.6 in WSW 9.3 mph 9.3 mph 77 % 0.0 in
12:49 14.9 °F 10.9 °F 1025.6 in WSW 11.1 mph 11.1 mph 77 % 0.0 in
12:54 15.0 °F 11.0 °F 1025.6 in WSW 9.3 mph 9.3 mph 77 % 0.0 in
12:59 15.0 °F 11.0 °F 1025.3 in WSW 7.4 mph 7.4 mph 77 % 0.0 in
13:04 15.0 °F 11.0 °F 1025.3 in WSW 9.3 mph 9.3 mph 77 % 0.0 in
13:09 15.0 °F 11.0 °F 1025.3 in SW 9.7 mph 9.7 mph 77 % 0.0 in
13:14 14.9 °F 11.2 °F 1025.3 in WSW 13.0 mph 13.0 mph 78 % 0.0 in
13:19 14.9 °F 11.2 °F 1024.9 in WSW 11.1 mph 11.1 mph 78 % 0.0 in
13:24 14.9 °F 11.2 °F 1024.9 in WSW 11.1 mph 11.1 mph 78 % 0.0 in
13:29 14.9 °F 11.3 °F 1024.9 in WSW 13.0 mph 13.0 mph 79 % 0.0 in
13:34 15.0 °F 11.4 °F 1024.9 in WSW 13.0 mph 13.0 mph 79 % 0.0 in
13:39 15.0 °F 11.4 °F 1024.9 in WSW 14.8 mph 14.8 mph 79 % 0.0 in
13:44 15.0 °F 11.4 °F 1024.9 in WSW 11.1 mph 11.1 mph 79 % 0.0 in
13:49 15.0 °F 11.4 °F 1024.9 in West 13.0 mph 13.0 mph 79 % 0.0 in
13:54 15.0 °F 11.4 °F 1024.9 in WSW 14.5 mph 14.5 mph 79 % 0.0 in
13:59 15.1 °F 11.4 °F 1024.9 in WSW 13.0 mph 13.0 mph 79 % 0.0 in
14:04 15.1 °F 11.5 °F 1024.6 in WSW 11.1 mph 11.1 mph 79 % 0.0 in
14:09 15.2 °F 11.6 °F 1024.6 in WSW 13.0 mph 13.0 mph 79 % 0.0 in
14:14 15.2 °F 11.6 °F 1024.6 in West 13.0 mph 13.0 mph 79 % 0.0 in
14:19 15.2 °F 11.6 °F 1024.6 in WSW 13.0 mph 13.0 mph 79 % 0.0 in
14:24 15.2 °F 11.6 °F 1024.6 in WSW 11.1 mph 11.1 mph 79 % 0.0 in
14:29 15.2 °F 11.6 °F 1024.6 in WSW 11.1 mph 11.1 mph 79 % 0.0 in
14:34 15.2 °F 11.6 °F 1024.6 in WSW 16.7 mph 16.7 mph 79 % 0.0 in
14:39 15.2 °F 11.6 °F 1024.3 in WSW 13.0 mph 13.0 mph 79 % 0.0 in
14:44 15.4 °F 11.9 °F 1024.3 in WSW 11.1 mph 11.1 mph 80 % 0.0 in
14:49 15.5 °F 11.9 °F 1024.3 in WSW 13.0 mph 13.0 mph 79 % 0.0 in
14:54 15.4 °F 11.8 °F 1024.3 in WSW 11.1 mph 11.1 mph 79 % 0.0 in
14:59 15.4 °F 11.8 °F 1024.3 in SW 9.7 mph 9.7 mph 79 % 0.0 in
15:04 15.4 °F 11.8 °F 1024.3 in SW 11.1 mph 11.1 mph 79 % 0.0 in
15:09 15.4 °F 12.0 °F 1024.3 in WSW 9.3 mph 9.3 mph 80 % 0.0 in
15:14 15.4 °F 12.0 °F 1024.3 in WSW 13.0 mph 13.0 mph 80 % 0.0 in
15:19 15.4 °F 12.0 °F 1024.3 in WSW 11.1 mph 11.1 mph 80 % 0.0 in
15:24 15.5 °F 12.1 °F 1024.3 in WSW 11.1 mph 11.1 mph 80 % 0.0 in
15:29 15.6 °F 12.1 °F 1024.6 in WSW 11.3 mph 11.3 mph 80 % 0.0 in
15:34 15.6 °F 12.1 °F 1024.3 in WSW 13.0 mph 13.0 mph 80 % 0.0 in
15:39 15.6 °F 12.1 °F 1024.3 in WSW 9.3 mph 9.3 mph 80 % 0.0 in
15:44 15.6 °F 12.1 °F 1024.3 in WSW 7.4 mph 7.4 mph 80 % 0.0 in
15:49 15.6 °F 12.1 °F 1024.3 in WSW 7.4 mph 7.4 mph 80 % 0.0 in
15:54 15.6 °F 12.2 °F 1024.3 in WSW 9.3 mph 9.3 mph 80 % 0.0 in
15:59 15.7 °F 12.1 °F 1024.3 in WSW 9.7 mph 9.7 mph 79 % 0.0 in
16:04 15.7 °F 12.1 °F 1024.3 in WSW 6.4 mph 6.4 mph 79 % 0.0 in
16:09 15.7 °F 12.1 °F 1024.6 in WSW 9.3 mph 9.3 mph 79 % 0.0 in
16:14 15.8 °F 12.2 °F 1024.6 in WSW 8.0 mph 8.0 mph 79 % 0.0 in
16:19 15.8 °F 12.2 °F 1024.6 in WSW 7.4 mph 7.4 mph 79 % 0.0 in
16:24 15.8 °F 12.2 °F 1024.6 in WSW 7.4 mph 7.4 mph 79 % 0.0 in
16:29 15.8 °F 12.2 °F 1024.6 in WSW 8.0 mph 8.0 mph 79 % 0.0 in
16:34 15.8 °F 12.2 °F 1024.6 in WSW 5.6 mph 5.6 mph 79 % 0.0 in
16:39 15.9 °F 12.1 °F 1024.6 in WSW 5.6 mph 5.6 mph 78 % 0.0 in
16:44 15.9 °F 12.2 °F 1024.6 in WSW 6.4 mph 6.4 mph 79 % 0.0 in
16:49 15.9 °F 12.3 °F 1024.6 in WSW 5.6 mph 5.6 mph 79 % 0.0 in
16:54 15.9 °F 12.3 °F 1024.6 in North 6.4 mph 6.4 mph 79 % 0.0 in
16:59 15.9 °F 12.3 °F 1024.6 in WSW 5.6 mph 5.6 mph 79 % 0.0 in
17:04 15.9 °F 12.5 °F 1024.6 in WSW 7.4 mph 7.4 mph 80 % 0.0 in
17:09 15.9 °F 12.5 °F 1024.6 in WSW 5.6 mph 5.6 mph 80 % 0.0 in
17:14 15.9 °F 12.4 °F 1024.6 in WSW 6.4 mph 6.4 mph 80 % 0.0 in
17:19 15.8 °F 12.4 °F 1024.6 in WSW 7.4 mph 7.4 mph 80 % 0.0 in
17:24 15.8 °F 12.3 °F 1024.6 in WSW 4.8 mph 4.8 mph 80 % 0.0 in
17:29 15.7 °F 12.3 °F 1024.6 in WSW 5.6 mph 5.6 mph 80 % 0.0 in
17:34 15.7 °F 12.4 °F 1024.6 in WSW 1.6 mph 1.6 mph 81 % 0.0 in
17:39 15.7 °F 12.4 °F 1024.6 in WSW 5.6 mph 5.6 mph 81 % 0.0 in
17:44 15.6 °F 12.3 °F 1024.6 in WSW 5.6 mph 5.6 mph 81 % 0.0 in
17:49 15.6 °F 12.3 °F 1024.6 in WSW 5.6 mph 5.6 mph 81 % 0.0 in
17:54 15.6 °F 12.3 °F 1024.9 in WSW 3.7 mph 3.7 mph 81 % 0.0 in
18:00 15.5 °F 12.4 °F 1024.9 in WSW 5.6 mph 5.6 mph 82 % 0.0 in
18:05 15.4 °F 12.4 °F 1024.9 in WSW 5.6 mph 5.6 mph 82 % 0.0 in
18:10 15.4 °F 12.4 °F 1024.9 in WSW 5.6 mph 5.6 mph 82 % 0.0 in
18:15 15.4 °F 12.3 °F 1024.9 in WSW 3.7 mph 3.7 mph 82 % 0.0 in
18:20 15.3 °F 12.3 °F 1024.9 in Calm     82 % 0.0 in
18:25 15.3 °F 12.4 °F 1024.9 in Calm     83 % 0.0 in
18:30 15.3 °F 12.4 °F 1024.9 in Calm     83 % 0.0 in
18:35 15.2 °F 12.2 °F 1024.9 in Calm     82 % 0.0 in
18:40 15.1 °F 12.0 °F 1024.9 in WSW 4.8 mph 4.8 mph 82 % 0.0 in
18:45 14.8 °F 11.9 °F 1024.9 in NW 5.6 mph 5.6 mph 83 % 0.0 in
18:50 14.6 °F 11.7 °F 1024.9 in NW 3.2 mph 6.4 mph 83 % 0.0 in
18:55 14.4 °F 11.8 °F 1024.9 in Calm   4.8 mph 84 % 0.0 in
19:00 14.3 °F 11.7 °F 1024.9 in Calm     84 % 0.0 in
19:05 14.3 °F 11.8 °F 1024.9 in Calm     85 % 0.0 in
19:10 14.3 °F 11.8 °F 1024.9 in NNW 6.4 mph 7.2 mph 85 % 0.0 in
19:15 14.2 °F 11.7 °F 1024.9 in NNW 3.2 mph 8.0 mph 85 % 0.0 in
19:20 14.1 °F 11.6 °F 1025.3 in North 7.4 mph 7.4 mph 85 % 0.0 in
19:30 14.0 °F 11.7 °F 1025.3 in NNW 5.6 mph   86 % 0.0 in
19:35 14.0 °F 11.7 °F 1025.3 in Calm     86 % 0.0 in
19:40 14.0 °F 11.7 °F 1025.3 in Calm     86 % 0.0 in
19:45 13.9 °F 11.4 °F 1025.3 in North 5.6 mph 5.6 mph 85 % 0.0 in
19:50 13.8 °F 11.3 °F 1025.3 in North 5.6 mph 5.6 mph 85 % 0.0 in
19:55 13.8 °F 11.3 °F 1025.3 in North 7.4 mph 7.4 mph 85 % 0.0 in
20:00 13.7 °F 11.2 °F 1025.3 in North 4.8 mph 8.0 mph 85 % 0.0 in
20:05 13.7 °F 11.2 °F 1025.6 in Calm     85 % 0.0 in
20:10 13.6 °F 11.1 °F 1025.6 in Calm     85 % 0.0 in
20:15 13.6 °F 11.1 °F 1025.6 in NNW 7.4 mph 7.4 mph 85 % 0.0 in
20:20 13.6 °F 10.9 °F 1025.6 in Calm   6.4 mph 84 % 0.0 in
20:25 13.6 °F 10.9 °F 1025.6 in NNW 8.0 mph 8.0 mph 84 % 0.0 in
20:30 13.4 °F 10.6 °F 1025.6 in NNW 8.0 mph 11.3 mph 83 % 0.0 in
20:35 13.4 °F 10.6 °F 1025.6 in NNW 4.8 mph 11.3 mph 83 % 0.0 in
20:40 13.4 °F 10.4 °F 1025.6 in North 11.1 mph 11.1 mph 82 % 0.0 in
20:45 13.4 °F 10.2 °F 1025.6 in North 8.0 mph 12.9 mph 81 % 0.0 in
20:50 13.4 °F 10.2 °F 1026.0 in NNW 11.1 mph 11.1 mph 81 % 0.0 in
20:55 13.4 °F 10.0 °F 1026.0 in NNW 8.0 mph 9.7 mph 80 % 0.0 in
21:00 13.4 °F 10.1 °F 1026.0 in NNW 7.4 mph 7.4 mph 80 % 0.0 in
21:05 13.4 °F 9.9 °F 1026.0 in North 11.1 mph 11.1 mph 79 % 0.0 in
21:10 13.5 °F 9.7 °F 1026.0 in North 11.1 mph 11.1 mph 78 % 0.0 in
21:15 13.4 °F 9.7 °F 1026.0 in North 8.0 mph 9.7 mph 78 % 0.0 in
21:16 13.4 °F 9.5 °F 1026.0 in North 9.3 mph 9.3 mph 77 % 0.0 in
21:21 13.4 °F 9.4 °F 1026.0 in North 11.1 mph 11.1 mph 77 % 0.0 in
21:26 13.3 °F 9.4 °F 1026.0 in NNW 9.3 mph 9.3 mph 77 % 0.0 in
21:31 13.3 °F 9.3 °F 1026.0 in North 7.4 mph 7.4 mph 77 % 0.0 in
21:36 13.2 °F 9.3 °F 1026.0 in North 9.7 mph 9.7 mph 77 % 0.0 in
21:41 13.2 °F 9.2 °F 1026.0 in North 9.3 mph 9.3 mph 77 % 0.0 in
21:46 13.1 °F 9.2 °F 1026.0 in North 9.3 mph 9.3 mph 77 % 0.0 in
21:51 13.0 °F 9.1 °F 1026.0 in North 11.3 mph 11.3 mph 77 % 0.0 in
21:56 13.0 °F 9.1 °F 1026.0 in North 11.1 mph 11.1 mph 77 % 0.0 in
22:01 12.9 °F 8.8 °F 1026.0 in North 11.3 mph 11.3 mph 76 % 0.0 in
22:06 12.8 °F 8.9 °F 1026.0 in North 13.0 mph 13.0 mph 77 % 0.0 in
22:11 12.7 °F 8.8 °F 1026.0 in NNE 13.0 mph 13.0 mph 77 % 0.0 in
22:16 12.7 °F 8.6 °F 1026.0 in North 11.3 mph 11.3 mph 76 % 0.0 in
22:21 12.7 °F 8.6 °F 1026.0 in North 11.1 mph 11.1 mph 76 % 0.0 in
22:26 12.8 °F 8.7 °F 1026.0 in NNW 13.0 mph 13.0 mph 76 % 0.0 in
22:31 12.8 °F 8.7 °F 1026.0 in North 14.8 mph 14.8 mph 76 % 0.0 in
22:36 12.9 °F 8.6 °F 1026.0 in NNW 13.0 mph 13.0 mph 75 % 0.0 in
22:41 12.9 °F 8.4 °F 1026.0 in North 14.5 mph 14.5 mph 74 % 0.0 in
22:46 12.9 °F 8.4 °F 1026.0 in North 13.0 mph 13.0 mph 74 % 0.0 in
22:51 12.9 °F 8.4 °F 1026.3 in North 11.1 mph 11.1 mph 74 % 0.0 in
22:56 12.9 °F 8.2 °F 1026.3 in North 14.8 mph 14.8 mph 73 % 0.0 in
23:01 13.0 °F 8.3 °F 1026.3 in North 14.8 mph 14.8 mph 73 % 0.0 in
23:06 13.1 °F 8.1 °F 1026.3 in NNW 14.8 mph 14.8 mph 72 % 0.0 in
23:11 13.1 °F 8.1 °F 1026.3 in North 13.0 mph 13.0 mph 72 % 0.0 in
23:16 13.1 °F 7.9 °F 1026.3 in North 14.8 mph 14.8 mph 71 % 0.0 in
23:21 13.1 °F 7.9 °F 1026.3 in North 11.1 mph 11.1 mph 71 % 0.0 in
23:26 13.0 °F 7.9 °F 1026.3 in North 13.0 mph 13.0 mph 71 % 0.0 in
23:31 12.9 °F 7.8 °F 1026.3 in North 14.8 mph 14.8 mph 71 % 0.0 in
23:36 12.9 °F 7.8 °F 1026.3 in North 11.1 mph 11.1 mph 71 % 0.0 in
23:41 12.8 °F 7.7 °F 1026.3 in North 14.8 mph 14.8 mph 71 % 0.0 in
23:47 12.9 °F 7.8 °F 1026.3 in North 14.8 mph 14.8 mph 71 % 0.0 in
23:52 12.8 °F 7.7 °F 1026.3 in North 13.0 mph 13.0 mph 71 % 0.0 in
23:57 12.9 °F 7.8 °F 1026.3 in North 13.0 mph 13.0 mph 71 % 0.0 in
Puerto Banus, Marbella
Elogios de Weather Underground - 2.25 mb

Guión original por  Jim McMurry - jmcmurry@mwt.net Adaptado para la plantilla por  Wim van der Kuil - Leuven-Template.eu

Usted encontrará nuestra información del tiempo también en:

Weather Underground

Iberian Peninsula Weather Network